createdAt,value
2016-08-23T00:00:51.696Z,23.51
2016-08-23T00:01:52.475Z,23.51
2016-08-23T00:02:53.165Z,23.55
2016-08-23T00:03:52.480Z,23.55
2016-08-23T00:04:52.454Z,23.55
2016-08-23T00:05:52.419Z,23.58
2016-08-23T00:06:51.896Z,23.54
2016-08-23T00:07:53.221Z,23.55
2016-08-23T00:08:52.434Z,23.48
2016-08-23T00:09:52.472Z,23.42
2016-08-23T00:10:53.190Z,23.46
2016-08-23T00:11:52.413Z,23.42
2016-08-23T00:12:52.599Z,23.48
2016-08-23T00:13:53.233Z,23.46
2016-08-23T00:14:53.482Z,23.48
2016-08-23T00:15:52.379Z,23.46
2016-08-23T00:16:52.560Z,23.46
2016-08-23T00:17:52.612Z,23.48
2016-08-23T00:18:53.209Z,23.51
2016-08-23T00:19:52.566Z,23.42
2016-08-23T00:20:52.472Z,23.46
2016-08-23T00:21:53.288Z,23.46
2016-08-23T00:22:53.275Z,23.47
2016-08-23T00:23:52.597Z,23.46
2016-08-23T00:24:53.253Z,23.53
2016-08-23T00:25:53.352Z,23.42
2016-08-23T00:26:53.279Z,23.42
2016-08-23T00:27:51.779Z,23.42
2016-08-23T00:28:53.289Z,23.47
2016-08-23T00:29:53.566Z,23.47
2016-08-23T00:30:53.300Z,23.48
2016-08-23T00:31:52.625Z,23.51
2016-08-23T00:32:53.422Z,23.42
2016-08-23T00:33:52.768Z,23.5
2016-08-23T00:34:52.600Z,23.48
2016-08-23T00:35:53.299Z,23.5
2016-08-23T00:36:52.712Z,23.5
2016-08-23T00:37:53.548Z,23.5
2016-08-23T00:38:53.370Z,23.48
2016-08-23T00:39:52.683Z,23.5
2016-08-23T00:40:52.644Z,23.42
2016-08-23T00:41:52.687Z,23.46
2016-08-23T00:42:53.729Z,23.46
2016-08-23T00:43:54.274Z,23.5
2016-08-23T00:44:53.405Z,23.53
2016-08-23T00:45:52.787Z,23.48
2016-08-23T00:46:53.414Z,23.5
2016-08-23T00:47:53.584Z,23.48
2016-08-23T00:48:52.832Z,23.46
2016-08-23T00:49:52.727Z,23.48
2016-08-23T00:50:53.762Z,23.48
2016-08-23T00:51:53.529Z,23.5
2016-08-23T00:52:53.543Z,23.51
2016-08-23T00:53:53.471Z,23.48
2016-08-23T00:54:53.509Z,23.48
2016-08-23T00:55:52.777Z,23.43
2016-08-23T00:56:52.771Z,23.4
2016-08-23T00:57:52.752Z,23.4
2016-08-23T00:58:52.703Z,23.46
2016-08-23T00:59:53.542Z,23.39
2016-08-23T01:00:52.915Z,23.47
2016-08-23T01:01:53.554Z,23.5
2016-08-23T01:02:53.529Z,23.42
2016-08-23T01:03:52.848Z,23.5
2016-08-23T01:04:53.653Z,23.47
2016-08-23T01:05:54.315Z,23.46
2016-08-23T01:06:52.782Z,23.46
2016-08-23T01:07:52.785Z,23.4
2016-08-23T01:08:52.847Z,23.43
2016-08-23T01:09:52.899Z,23.38
2016-08-23T01:10:53.624Z,23.46
2016-08-23T01:11:53.617Z,23.42
2016-08-23T01:12:52.914Z,23.42
2016-08-23T01:14:07.037Z,23.36
2016-08-23T01:14:52.139Z,23.43
2016-08-23T01:15:53.620Z,23.39
2016-08-23T01:16:52.976Z,23.4
2016-08-23T01:17:53.656Z,23.39
2016-08-23T01:18:52.935Z,23.43
2016-08-23T01:19:52.919Z,23.36
2016-08-23T01:20:53.742Z,23.42
2016-08-23T01:21:54.448Z,23.35
2016-08-23T01:22:53.084Z,23.38
2016-08-23T01:23:53.013Z,23.42
2016-08-23T01:24:53.072Z,23.39
2016-08-23T01:25:53.696Z,23.42
2016-08-23T01:26:53.676Z,23.47
2016-08-23T01:27:53.640Z,23.38
2016-08-23T01:28:52.940Z,23.42
2016-08-23T01:29:53.881Z,23.36
2016-08-23T01:30:53.062Z,23.39
2016-08-23T01:31:53.783Z,23.35
2016-08-23T01:32:53.912Z,23.36
2016-08-23T01:33:53.688Z,23.46
2016-08-23T01:34:53.084Z,23.47
2016-08-23T01:35:53.810Z,23.33
2016-08-23T01:36:52.941Z,23.36
2016-08-23T01:37:53.796Z,23.38
2016-08-23T01:38:53.702Z,23.4
2016-08-23T01:39:53.909Z,23.38
2016-08-23T01:40:53.782Z,23.39
2016-08-23T01:41:53.812Z,23.46
2016-08-23T01:42:53.070Z,23.33
2016-08-23T01:43:53.161Z,23.36
2016-08-23T01:44:53.787Z,23.36
2016-08-23T01:45:53.948Z,23.39
2016-08-23T01:46:53.943Z,23.32
2016-08-23T01:47:53.872Z,23.38
2016-08-23T01:48:53.090Z,23.4
2016-08-23T01:49:52.350Z,23.39
2016-08-23T01:50:53.890Z,23.32
2016-08-23T01:51:53.071Z,23.36
2016-08-23T01:52:52.445Z,23.39
2016-08-23T01:53:54.360Z,23.33
2016-08-23T01:54:53.253Z,23.35
2016-08-23T01:55:53.854Z,23.36
2016-08-23T01:56:54.752Z,23.38
2016-08-23T01:57:53.313Z,23.36
2016-08-23T01:58:53.160Z,23.36
2016-08-23T01:59:53.538Z,23.38
2016-08-23T02:00:53.250Z,23.36
2016-08-23T02:01:53.182Z,23.33
2016-08-23T02:02:53.881Z,23.33
2016-08-23T02:03:54.034Z,23.28
2016-08-23T02:04:52.541Z,23.28
2016-08-23T02:05:53.192Z,23.39
2016-08-23T02:06:53.931Z,23.32
2016-08-23T02:07:53.226Z,23.28
2016-08-23T02:08:53.181Z,23.33
2016-08-23T02:09:52.479Z,23.32
2016-08-23T02:10:54.037Z,23.35
2016-08-23T02:11:53.314Z,23.36
2016-08-23T02:12:52.536Z,23.32
2016-08-23T02:13:52.542Z,23.28
2016-08-23T02:14:53.329Z,23.31
2016-08-23T02:15:53.316Z,23.35
2016-08-23T02:16:53.390Z,23.35
2016-08-23T02:17:53.332Z,23.33
2016-08-23T02:18:54.093Z,23.31
2016-08-23T02:19:54.040Z,23.31
2016-08-23T02:20:53.392Z,23.27
2016-08-23T02:21:53.279Z,23.33
2016-08-23T02:22:54.280Z,23.28
2016-08-23T02:23:54.024Z,23.32
2016-08-23T02:24:54.119Z,23.32
2016-08-23T02:25:53.353Z,23.27
2016-08-23T02:26:54.011Z,23.35
2016-08-23T02:27:54.228Z,23.35
2016-08-23T02:28:54.227Z,23.32
2016-08-23T02:29:53.399Z,23.32
2016-08-23T02:30:54.054Z,23.28
2016-08-23T02:31:53.539Z,23.38
2016-08-23T02:32:52.614Z,23.28
2016-08-23T02:33:52.698Z,23.28
2016-08-23T02:34:54.265Z,23.36
2016-08-23T02:35:53.344Z,23.33
2016-08-23T02:36:53.349Z,23.36
2016-08-23T02:37:52.779Z,23.31
2016-08-23T02:38:53.578Z,23.38
2016-08-23T02:39:54.299Z,23.33
2016-08-23T02:40:55.084Z,23.32
2016-08-23T02:41:52.767Z,23.36
2016-08-23T02:42:53.547Z,23.23
2016-08-23T02:43:54.250Z,23.31
2016-08-23T02:44:54.960Z,23.33
2016-08-23T02:45:54.166Z,23.31
2016-08-23T02:46:53.558Z,23.33
2016-08-23T02:47:53.431Z,23.31
2016-08-23T02:48:54.353Z,23.35
2016-08-23T02:49:55.269Z,23.33
2016-08-23T02:50:54.195Z,23.28
2016-08-23T02:51:53.599Z,23.27
2016-08-23T02:52:52.894Z,23.31
2016-08-23T02:53:54.427Z,23.25
2016-08-23T02:54:54.422Z,23.23
2016-08-23T02:55:54.441Z,23.28
2016-08-23T02:56:54.343Z,23.2
2016-08-23T02:57:54.445Z,23.28
2016-08-23T02:58:53.641Z,23.33
2016-08-23T02:59:53.736Z,23.32
2016-08-23T03:00:53.624Z,23.23
2016-08-23T03:01:53.682Z,23.2
2016-08-23T03:02:53.767Z,23.36
2016-08-23T03:03:53.613Z,23.25
2016-08-23T03:04:54.251Z,23.22
2016-08-23T03:05:54.379Z,23.33
2016-08-23T03:06:56.499Z,23.32
2016-08-23T03:07:54.367Z,23.17
2016-08-23T03:08:54.433Z,23.28
2016-08-23T03:09:54.469Z,23.28
2016-08-23T03:10:53.061Z,23.27
2016-08-23T03:11:53.766Z,23.27
2016-08-23T03:12:53.792Z,23.19
2016-08-23T03:13:54.544Z,23.12
2016-08-23T03:14:54.431Z,23.17
2016-08-23T03:15:53.730Z,23.19
2016-08-23T03:16:52.915Z,23.2
2016-08-23T03:17:53.630Z,23.22
2016-08-23T03:18:53.788Z,23.22
2016-08-23T03:19:53.790Z,23.19
2016-08-23T03:20:54.430Z,23.19
2016-08-23T03:21:54.412Z,23.22
2016-08-23T03:22:54.469Z,23.19
2016-08-23T03:23:53.865Z,23.22
2016-08-23T03:24:55.747Z,23.13
2016-08-23T03:25:54.943Z,23.16
2016-08-23T03:26:52.984Z,23.2
2016-08-23T03:27:53.079Z,23.23
2016-08-23T03:28:53.861Z,23.22
2016-08-23T03:29:54.516Z,23.27
2016-08-23T03:30:53.757Z,23.22
2016-08-23T03:31:53.745Z,23.19
2016-08-23T03:32:54.543Z,23.22
2016-08-23T03:33:54.603Z,23.27
2016-08-23T03:34:54.744Z,23.23
2016-08-23T03:35:54.572Z,23.19
2016-08-23T03:36:53.930Z,23.2
2016-08-23T03:37:54.510Z,23.22
2016-08-23T03:38:54.635Z,23.2
2016-08-23T03:39:54.551Z,23.23
2016-08-23T03:40:53.797Z,23.17
2016-08-23T03:41:54.021Z,23.13
2016-08-23T03:42:54.620Z,23.17
2016-08-23T03:43:53.911Z,23.19
2016-08-23T03:44:54.564Z,23.16
2016-08-23T03:45:54.741Z,23.25
2016-08-23T03:46:53.826Z,23.25
2016-08-23T03:47:53.938Z,23.22
2016-08-23T03:48:53.131Z,23.17
2016-08-23T03:49:54.663Z,23.17
2016-08-23T03:50:54.062Z,23.2
2016-08-23T03:51:54.044Z,23.16
2016-08-23T03:52:54.620Z,23.31
2016-08-23T03:53:54.006Z,23.17
2016-08-23T03:54:54.753Z,23.12
2016-08-23T03:55:53.345Z,23.2
2016-08-23T03:56:53.991Z,23.25
2016-08-23T03:57:53.923Z,23.22
2016-08-23T03:58:54.086Z,23.22
2016-08-23T03:59:54.734Z,23.25
2016-08-23T04:00:54.808Z,23.25
2016-08-23T04:01:54.839Z,23.28
2016-08-23T04:02:54.746Z,23.19
2016-08-23T04:03:53.245Z,23.17
2016-08-23T04:04:54.172Z,23.23
2016-08-23T04:05:54.793Z,23.15
2016-08-23T04:06:54.143Z,23.27
2016-08-23T04:07:53.970Z,23.27
2016-08-23T04:08:54.933Z,23.17
2016-08-23T04:09:53.984Z,23.2
2016-08-23T04:10:53.990Z,23.28
2016-08-23T04:11:54.823Z,23.22
2016-08-23T04:12:54.037Z,23.2
2016-08-23T04:13:54.077Z,23.22
2016-08-23T04:14:54.836Z,23.31
2016-08-23T04:15:54.832Z,23.19
2016-08-23T04:16:54.755Z,23.15
2016-08-23T04:17:54.850Z,23.16
2016-08-23T04:18:54.083Z,23.22
2016-08-23T04:19:54.981Z,23.15
2016-08-23T04:20:54.256Z,23.19
2016-08-23T04:21:54.078Z,23.17
2016-08-23T04:22:54.852Z,23.23
2016-08-23T04:23:54.076Z,23.12
2016-08-23T04:24:54.851Z,23.22
2016-08-23T04:25:54.799Z,23.15
2016-08-23T04:26:54.181Z,23.31
2016-08-23T04:27:54.193Z,23.17
2016-08-23T04:28:54.895Z,23.2
2016-08-23T04:29:54.837Z,23.19
2016-08-23T04:30:54.133Z,23.19
2016-08-23T04:31:54.187Z,23.22
2016-08-23T04:32:54.963Z,23.19
2016-08-23T04:33:54.175Z,23.17
2016-08-23T04:34:53.567Z,23.17
2016-08-23T04:35:54.914Z,23.19
2016-08-23T04:36:54.899Z,23.25
2016-08-23T04:37:54.931Z,23.19
2016-08-23T04:38:54.247Z,23.19
2016-08-23T04:39:54.945Z,23.19
2016-08-23T04:40:54.914Z,23.17
2016-08-23T04:41:55.011Z,23.2
2016-08-23T04:42:55.000Z,23.16
2016-08-23T04:43:54.215Z,23.22
2016-08-23T04:44:54.383Z,23.17
2016-08-23T04:45:54.325Z,23.13
2016-08-23T04:46:54.414Z,23.25
2016-08-23T04:47:55.200Z,23.2
2016-08-23T04:48:53.539Z,23.25
2016-08-23T04:49:53.547Z,23.16
2016-08-23T04:50:53.554Z,23.15
2016-08-23T04:51:55.051Z,23.27
2016-08-23T04:52:54.990Z,23.19
2016-08-23T04:53:54.599Z,23.17
2016-08-23T04:54:54.422Z,23.25
2016-08-23T04:55:53.804Z,23.25
2016-08-23T04:56:54.307Z,23.19
2016-08-23T04:57:54.496Z,23.23
2016-08-23T04:58:55.053Z,23.15
2016-08-23T04:59:54.423Z,23.27
2016-08-23T05:00:55.325Z,23.13
2016-08-23T05:01:54.388Z,23.31
2016-08-23T05:02:55.181Z,23.13
2016-08-23T05:03:55.141Z,23.22
2016-08-23T05:04:54.404Z,23.22
2016-08-23T05:05:55.215Z,23.2
2016-08-23T05:06:55.237Z,23.19
2016-08-23T05:07:54.377Z,23.2
2016-08-23T05:08:55.282Z,23.17
2016-08-23T05:09:55.248Z,23.13
2016-08-23T05:10:54.405Z,23.17
2016-08-23T05:11:55.114Z,23.28
2016-08-23T05:12:54.659Z,23.22
2016-08-23T05:13:53.933Z,23.28
2016-08-23T05:14:54.598Z,23.17
2016-08-23T05:15:55.241Z,23.19
2016-08-23T05:16:54.592Z,23.2
2016-08-23T05:17:55.153Z,23.2
2016-08-23T05:18:55.260Z,23.27
2016-08-23T05:19:53.873Z,23.17
2016-08-23T05:20:55.173Z,23.25
2016-08-23T05:21:55.285Z,23.33
2016-08-23T05:22:55.521Z,23.32
2016-08-23T05:23:55.335Z,23.38
2016-08-23T05:24:54.546Z,23.4
2016-08-23T05:25:54.658Z,23.42
2016-08-23T05:26:55.350Z,23.39
2016-08-23T05:27:54.696Z,23.4
2016-08-23T05:28:55.265Z,23.46
2016-08-23T05:29:54.532Z,23.48
2016-08-23T05:30:55.550Z,23.46
2016-08-23T05:31:53.884Z,23.46
2016-08-23T05:32:54.561Z,23.43
2016-08-23T05:33:54.625Z,23.5
2016-08-23T05:34:55.509Z,23.42
2016-08-23T05:35:55.316Z,23.4
2016-08-23T05:36:55.379Z,23.4
2016-08-23T05:37:53.892Z,23.4
2016-08-23T05:38:55.481Z,23.43
2016-08-23T05:39:54.861Z,23.4
2016-08-23T05:40:55.456Z,23.42
2016-08-23T05:41:54.693Z,23.39
2016-08-23T05:42:54.729Z,23.43
2016-08-23T05:43:55.500Z,23.4
2016-08-23T05:44:54.750Z,23.4
2016-08-23T05:45:54.658Z,23.43
2016-08-23T05:46:54.665Z,23.43
2016-08-23T05:47:55.414Z,23.48
2016-08-23T05:48:54.682Z,23.36
2016-08-23T05:49:55.391Z,23.39
2016-08-23T05:50:55.404Z,23.39
2016-08-23T05:51:54.703Z,23.36
2016-08-23T05:52:54.006Z,23.5
2016-08-23T05:53:54.730Z,23.39
2016-08-23T05:54:55.515Z,23.43
2016-08-23T05:55:54.028Z,23.42
2016-08-23T05:56:54.829Z,23.4
2016-08-23T05:57:54.853Z,23.42
2016-08-23T05:58:55.504Z,23.47
2016-08-23T05:59:55.486Z,23.53
2016-08-23T06:00:54.161Z,23.43
2016-08-23T06:01:55.512Z,23.46
2016-08-23T06:02:54.915Z,23.58
2016-08-23T06:03:54.307Z,23.48
2016-08-23T06:04:54.088Z,23.55
2016-08-23T06:05:55.611Z,23.54
2016-08-23T06:06:54.815Z,23.54
2016-08-23T06:07:55.528Z,23.54
2016-08-23T06:08:54.118Z,23.54
2016-08-23T06:09:54.968Z,23.57
2016-08-23T06:10:54.841Z,23.57
2016-08-23T06:11:54.924Z,23.58
2016-08-23T06:12:55.646Z,23.68
2016-08-23T06:13:55.221Z,23.66
2016-08-23T06:14:54.157Z,23.61
2016-08-23T06:15:54.893Z,23.57
2016-08-23T06:16:54.878Z,23.68
2016-08-23T06:17:55.610Z,23.66
2016-08-23T06:18:54.234Z,23.57
2016-08-23T06:19:54.898Z,23.63
2016-08-23T06:20:55.731Z,23.76
2016-08-23T06:21:56.955Z,23.61
2016-08-23T06:22:55.630Z,23.65
2016-08-23T06:23:55.627Z,23.75
2016-08-23T06:24:54.938Z,23.78
2016-08-23T06:25:55.648Z,23.84
2016-08-23T06:26:55.654Z,23.98
2016-08-23T06:27:55.770Z,24.08
2016-08-23T06:28:54.963Z,24.18
2016-08-23T06:29:55.808Z,24.24
2016-08-23T06:30:54.978Z,24.32
2016-08-23T06:31:54.280Z,24.31
2016-08-23T06:32:54.998Z,24.37
2016-08-23T06:33:55.767Z,24.37
2016-08-23T06:34:55.062Z,24.5
2016-08-23T06:35:55.873Z,24.5
2016-08-23T06:36:55.902Z,24.52
2016-08-23T06:37:55.131Z,24.68
2016-08-23T06:38:54.343Z,24.77
2016-08-23T06:39:54.419Z,24.84
2016-08-23T06:40:55.864Z,24.83
2016-08-23T06:41:55.928Z,24.84
2016-08-23T06:42:55.238Z,24.91
2016-08-23T06:43:55.142Z,25
2016-08-23T06:44:55.828Z,25.09
2016-08-23T06:45:55.873Z,25.08
2016-08-23T06:46:55.851Z,25.1
2016-08-23T06:47:55.160Z,25.08
2016-08-23T06:48:55.168Z,25.09
2016-08-23T06:49:55.943Z,25.14
2016-08-23T06:50:55.907Z,25.14
2016-08-23T06:51:55.272Z,25.08
2016-08-23T06:52:55.197Z,25.13
2016-08-23T06:53:56.002Z,25.28
2016-08-23T06:54:55.971Z,25.28
2016-08-23T06:55:55.382Z,25.4
2016-08-23T06:56:54.522Z,25.38
2016-08-23T06:57:55.267Z,25.35
2016-08-23T06:58:55.361Z,25.46
2016-08-23T06:59:55.366Z,25.47
2016-08-23T07:00:56.053Z,25.52
2016-08-23T07:01:55.990Z,25.52
2016-08-23T07:02:54.581Z,25.47
2016-08-23T07:03:54.592Z,25.52
2016-08-23T07:04:55.312Z,25.6
2016-08-23T07:05:55.322Z,25.57
2016-08-23T07:06:55.332Z,25.61
2016-08-23T07:07:56.075Z,25.61
2016-08-23T07:08:56.171Z,25.5
2016-08-23T07:09:55.468Z,25.28
2016-08-23T07:10:55.454Z,25.1
2016-08-23T07:11:56.102Z,25.02
2016-08-23T07:12:55.504Z,24.98
2016-08-23T07:13:56.129Z,24.84
2016-08-23T07:14:56.134Z,24.68
2016-08-23T07:15:55.463Z,24.76
2016-08-23T07:16:56.135Z,24.62
2016-08-23T07:17:56.144Z,24.67
2016-08-23T07:18:55.449Z,24.52
2016-08-23T07:19:56.163Z,24.58
2016-08-23T07:20:54.793Z,24.57
2016-08-23T07:21:55.512Z,24.53
2016-08-23T07:22:56.200Z,24.55
2016-08-23T07:23:56.318Z,24.57
2016-08-23T07:24:55.687Z,24.53
2016-08-23T07:25:55.602Z,24.52
2016-08-23T07:26:55.655Z,24.53
2016-08-23T07:27:54.826Z,24.43
2016-08-23T07:28:55.596Z,24.5
2016-08-23T07:29:56.243Z,24.3
2016-08-23T07:30:54.903Z,24.21
2016-08-23T07:31:55.604Z,23.98
2016-08-23T07:32:55.637Z,24.03
2016-08-23T07:33:56.278Z,24.02
2016-08-23T07:34:56.341Z,24.02
2016-08-23T07:35:56.363Z,24.03
2016-08-23T07:36:55.758Z,23.97
2016-08-23T07:37:55.659Z,23.97
2016-08-23T07:38:56.311Z,24
2016-08-23T07:39:55.607Z,23.87
2016-08-23T07:40:55.624Z,23.94
2016-08-23T07:41:55.641Z,23.95
2016-08-23T07:42:56.336Z,24.05
2016-08-23T07:45:04.013Z,23.63
2016-08-23T07:46:05.438Z,23.79
2016-08-23T07:47:04.728Z,23.94
2016-08-23T07:48:04.741Z,23.95
2016-08-23T07:49:04.745Z,23.9
2016-08-23T07:50:04.754Z,23.93
2016-08-23T07:51:05.519Z,23.98
2016-08-23T07:52:05.472Z,23.83
2016-08-23T07:53:04.775Z,23.63
2016-08-23T07:54:04.835Z,23.73
2016-08-23T07:55:04.788Z,23.83
2016-08-23T07:56:05.589Z,23.87
2016-08-23T07:57:04.795Z,23.83
2016-08-23T07:58:06.385Z,23.73
2016-08-23T07:59:04.807Z,23.61
2016-08-23T08:00:04.847Z,23.61
2016-08-23T08:01:04.820Z,23.57
2016-08-23T08:02:04.829Z,23.43
2016-08-23T08:03:04.832Z,23.73
2016-08-23T08:04:05.546Z,23.6
2016-08-23T08:05:05.549Z,23.55
2016-08-23T08:06:04.849Z,23.47
2016-08-23T08:07:05.564Z,23.68
2016-08-23T08:08:05.569Z,23.55
2016-08-23T08:09:04.158Z,23.65
2016-08-23T08:10:05.578Z,23.73
2016-08-23T08:11:05.700Z,23.75
2016-08-23T08:12:05.641Z,23.53
2016-08-23T08:13:04.176Z,23.6
2016-08-23T08:14:04.188Z,23.54
2016-08-23T08:15:04.947Z,23.53
2016-08-23T08:16:05.608Z,23.66
2016-08-23T08:17:05.612Z,23.42
2016-08-23T08:18:04.914Z,23.53
2016-08-23T08:19:04.933Z,23.43
2016-08-23T08:20:05.677Z,23.31
2016-08-23T08:21:04.934Z,23.57
2016-08-23T08:22:04.941Z,23.7
2016-08-23T08:23:04.231Z,23.69
2016-08-23T08:24:04.946Z,23.73
2016-08-23T08:25:04.246Z,23.73
2016-08-23T08:26:04.955Z,23.76
2016-08-23T08:27:05.011Z,23.78
2016-08-23T08:28:04.309Z,23.65
2016-08-23T08:29:06.445Z,23.61
2016-08-23T08:30:05.742Z,23.73
2016-08-23T08:31:05.143Z,23.8
2016-08-23T08:32:05.692Z,23.84
2016-08-23T08:33:04.289Z,23.84
2016-08-23T08:34:05.708Z,23.88
2016-08-23T08:35:05.016Z,23.84
2016-08-23T08:36:05.064Z,23.83
2016-08-23T08:37:05.727Z,23.73
2016-08-23T08:38:05.785Z,23.7
2016-08-23T08:39:05.043Z,23.69
2016-08-23T08:40:05.838Z,23.66
2016-08-23T08:41:05.045Z,23.69
2016-08-23T08:42:04.673Z,23.7
2016-08-23T08:43:04.358Z,23.75
2016-08-23T08:44:05.821Z,23.78
2016-08-23T08:45:05.781Z,23.9
2016-08-23T08:46:04.373Z,23.95
2016-08-23T08:47:05.839Z,23.97
2016-08-23T08:48:05.094Z,24.03
2016-08-23T08:49:05.098Z,24.09
2016-08-23T08:50:05.104Z,24.05
2016-08-23T08:51:05.556Z,24.09
2016-08-23T08:52:05.125Z,24.1
2016-08-23T08:53:04.469Z,24.13
2016-08-23T08:54:05.139Z,24.12
2016-08-23T08:55:07.006Z,24.16
2016-08-23T08:56:05.144Z,24.12
2016-08-23T08:57:05.154Z,24.24
2016-08-23T08:58:05.915Z,24.2
2016-08-23T08:59:05.175Z,24.09
2016-08-23T09:00:05.879Z,24.03
2016-08-23T09:01:04.477Z,24.06
2016-08-23T09:02:05.991Z,24.06
2016-08-23T09:03:05.240Z,23.97
2016-08-23T09:04:06.992Z,24.1
2016-08-23T09:05:05.911Z,24.16
2016-08-23T09:06:05.207Z,24.21
2016-08-23T09:07:04.509Z,24.21
2016-08-23T09:08:05.928Z,24.18
2016-08-23T09:09:05.935Z,24.21
2016-08-23T09:10:05.939Z,24.13
2016-08-23T09:11:05.249Z,24.15
2016-08-23T09:12:05.243Z,24.12
2016-08-23T09:13:04.992Z,24.25
2016-08-23T09:14:05.307Z,24.22
2016-08-23T09:15:06.704Z,24.24
2016-08-23T09:16:05.268Z,24.27
2016-08-23T09:17:04.572Z,24.22
2016-08-23T09:18:04.575Z,24.21
2016-08-23T09:19:05.290Z,24.22
2016-08-23T09:20:06.006Z,24.3
2016-08-23T09:21:05.304Z,24.21
2016-08-23T09:22:05.307Z,24.37
2016-08-23T09:23:06.022Z,24.37
2016-08-23T09:24:06.630Z,24.32
2016-08-23T09:25:04.616Z,24.32
2016-08-23T09:26:07.114Z,24.28
2016-08-23T09:27:04.632Z,24.42
2016-08-23T09:28:05.344Z,24.32
2016-08-23T09:29:06.053Z,24.35
2016-08-23T09:30:05.354Z,24.3
2016-08-23T09:31:06.131Z,24.39
2016-08-23T09:32:05.369Z,24.3
2016-08-23T09:33:06.082Z,24.32
2016-08-23T09:34:06.088Z,24.35
2016-08-23T09:35:06.661Z,24.25
2016-08-23T09:36:06.099Z,24.21
2016-08-23T09:37:06.350Z,24.22
2016-08-23T09:38:05.404Z,24.31
2016-08-23T09:39:06.115Z,24.3
2016-08-23T09:40:04.712Z,24.3
2016-08-23T09:41:04.727Z,24.32
2016-08-23T09:42:05.432Z,24.35
2016-08-23T09:43:05.438Z,24.35
2016-08-23T09:44:06.154Z,24.34
2016-08-23T09:45:05.451Z,24.39
2016-08-23T09:46:04.749Z,24.31
2016-08-23T09:47:05.463Z,24.5
2016-08-23T09:48:06.574Z,24.45
2016-08-23T09:49:04.775Z,24.5
2016-08-23T09:50:06.241Z,24.47
2016-08-23T09:51:05.491Z,24.57
2016-08-23T09:52:06.252Z,24.57
2016-08-23T09:53:06.256Z,24.61
2016-08-23T09:54:05.508Z,24.53
2016-08-23T09:55:06.220Z,24.57
2016-08-23T09:56:05.517Z,24.53
2016-08-23T09:57:06.738Z,24.45
2016-08-23T09:58:06.240Z,24.43
2016-08-23T09:59:06.352Z,24.43
2016-08-23T10:00:04.839Z,24.28
2016-08-23T10:01:04.845Z,24.43
2016-08-23T10:02:05.608Z,24.39
2016-08-23T10:03:05.566Z,24.35
2016-08-23T10:04:04.861Z,24.42
2016-08-23T10:05:05.574Z,24.35
2016-08-23T10:06:05.609Z,24.47
2016-08-23T10:07:06.299Z,24.34
2016-08-23T10:08:06.356Z,24.52
2016-08-23T10:09:05.600Z,24.47
2016-08-23T10:10:05.257Z,24.47
2016-08-23T10:11:04.962Z,24.45
2016-08-23T10:12:07.183Z,24.49
2016-08-23T10:13:05.629Z,24.4
2016-08-23T10:14:05.639Z,24.39
2016-08-23T10:15:05.645Z,24.35
2016-08-23T10:16:05.651Z,24.42
2016-08-23T10:17:06.374Z,24.43
2016-08-23T10:18:04.958Z,24.47
2016-08-23T10:19:06.383Z,24.49
2016-08-23T10:20:05.680Z,24.37
2016-08-23T10:21:07.173Z,24.42
2016-08-23T10:22:06.397Z,24.45
2016-08-23T10:23:05.040Z,24.57
2016-08-23T10:24:05.710Z,24.53
2016-08-23T10:25:05.709Z,24.61
2016-08-23T10:26:05.723Z,24.53
2016-08-23T10:27:06.481Z,24.53
2016-08-23T10:28:05.731Z,24.47
2016-08-23T10:29:06.442Z,24.4
2016-08-23T10:30:05.797Z,24.37
2016-08-23T10:31:05.750Z,24.27
2016-08-23T10:32:05.806Z,24.3
2016-08-23T10:33:05.774Z,24.32
2016-08-23T10:34:06.672Z,24.32
2016-08-23T10:35:05.836Z,24.34
2016-08-23T10:36:05.791Z,24.37
2016-08-23T10:37:05.789Z,24.37
2016-08-23T10:38:05.797Z,24.35
2016-08-23T10:39:05.094Z,24.32
2016-08-23T10:40:05.105Z,24.37
2016-08-23T10:41:05.817Z,24.39
2016-08-23T10:42:06.331Z,24.39
2016-08-23T10:43:06.700Z,24.5
2016-08-23T10:44:05.129Z,24.47
2016-08-23T10:45:06.392Z,24.52
2016-08-23T10:46:06.560Z,24.52
2016-08-23T10:47:05.908Z,24.52
2016-08-23T10:48:05.858Z,24.49
2016-08-23T10:49:05.916Z,24.53
2016-08-23T10:50:05.889Z,24.57
2016-08-23T10:51:05.175Z,24.52
2016-08-23T10:52:05.188Z,24.58
2016-08-23T10:53:05.898Z,24.5
2016-08-23T10:54:06.560Z,24.5
2016-08-23T10:55:05.911Z,24.53
2016-08-23T10:56:06.639Z,24.5
2016-08-23T10:57:05.926Z,24.5
2016-08-23T10:58:06.642Z,24.5
2016-08-23T10:59:05.235Z,24.55
2016-08-23T11:00:05.251Z,24.53
2016-08-23T11:01:05.958Z,24.55
2016-08-23T11:02:06.668Z,24.53
2016-08-23T11:03:05.264Z,24.53
2016-08-23T11:04:06.736Z,24.53
2016-08-23T11:05:06.994Z,24.6
2016-08-23T11:06:05.304Z,24.53
2016-08-23T11:07:06.024Z,24.55
2016-08-23T11:08:06.011Z,24.6
2016-08-23T11:09:06.771Z,24.58
2016-08-23T11:10:06.071Z,24.53
2016-08-23T11:11:06.745Z,24.53
2016-08-23T11:12:06.745Z,24.52
2016-08-23T11:13:06.756Z,24.52
2016-08-23T11:14:20.928Z,24.52
2016-08-23T11:15:06.767Z,24.57
2016-08-23T11:16:06.774Z,24.52
2016-08-23T11:17:06.073Z,24.53
2016-08-23T11:18:06.085Z,24.57
2016-08-23T11:19:06.797Z,24.53
2016-08-23T11:20:06.102Z,24.62
2016-08-23T11:21:05.395Z,24.53
2016-08-23T11:22:06.820Z,24.53
2016-08-23T11:23:06.120Z,24.58
2016-08-23T11:24:05.418Z,24.52
2016-08-23T11:25:06.783Z,24.52
2016-08-23T11:26:06.899Z,24.5
2016-08-23T11:27:06.853Z,24.6
2016-08-23T11:28:06.153Z,24.52
2016-08-23T11:29:07.256Z,24.61
2016-08-23T11:30:05.464Z,24.46
2016-08-23T11:31:06.182Z,24.55
2016-08-23T11:32:06.233Z,24.65
2016-08-23T11:33:06.899Z,24.68
2016-08-23T11:34:06.919Z,24.71
2016-08-23T11:35:05.500Z,24.71
2016-08-23T11:36:07.071Z,24.65
2016-08-23T11:37:06.927Z,24.65
2016-08-23T11:38:06.227Z,24.71
2016-08-23T11:39:06.945Z,24.67
2016-08-23T11:40:06.840Z,24.71
2016-08-23T11:41:06.958Z,24.67
2016-08-23T11:42:06.967Z,24.71
2016-08-23T11:43:06.262Z,24.67
2016-08-23T11:44:07.035Z,24.68
2016-08-23T11:45:06.286Z,24.58
2016-08-23T11:46:06.992Z,24.64
2016-08-23T11:47:06.299Z,24.68
2016-08-23T11:48:07.007Z,24.67
2016-08-23T11:49:08.108Z,24.68
2016-08-23T11:50:07.024Z,24.68
2016-08-23T11:51:07.579Z,24.68
2016-08-23T11:52:07.043Z,24.65
2016-08-23T11:53:06.339Z,24.64
2016-08-23T11:54:05.640Z,24.69
2016-08-23T11:55:05.693Z,24.62
2016-08-23T11:56:05.654Z,24.62
2016-08-23T11:57:05.660Z,24.62
2016-08-23T11:58:07.082Z,24.73
2016-08-23T11:59:07.110Z,24.73
2016-08-23T12:00:07.876Z,24.76
2016-08-23T12:01:06.398Z,24.71
2016-08-23T12:02:06.757Z,24.78
2016-08-23T12:03:07.122Z,24.78
2016-08-23T12:04:05.768Z,24.65
2016-08-23T12:05:06.427Z,24.71
2016-08-23T12:06:06.437Z,24.73
2016-08-23T12:07:05.734Z,24.78
2016-08-23T12:08:07.206Z,24.67
2016-08-23T12:09:07.164Z,24.71
2016-08-23T12:10:06.465Z,24.69
2016-08-23T12:11:08.177Z,24.69
2016-08-23T12:12:06.478Z,24.73
2016-08-23T12:13:07.197Z,24.77
2016-08-23T12:14:05.790Z,24.73
2016-08-23T12:15:07.259Z,24.78
2016-08-23T12:16:06.512Z,24.68
2016-08-23T12:17:07.237Z,24.77
2016-08-23T12:18:07.233Z,24.76
2016-08-23T12:19:06.534Z,24.62
2016-08-23T12:20:07.246Z,24.68
2016-08-23T12:21:06.544Z,24.67
2016-08-23T12:22:07.558Z,24.64
2016-08-23T12:23:05.855Z,24.68
2016-08-23T12:24:06.582Z,24.73
2016-08-23T12:25:07.287Z,24.71
2016-08-23T12:26:06.582Z,24.77
2016-08-23T12:27:06.596Z,24.69
2016-08-23T12:28:07.310Z,24.76
2016-08-23T12:29:06.606Z,24.71
2016-08-23T12:30:07.321Z,24.69
2016-08-23T12:31:07.327Z,24.84
2016-08-23T12:32:06.631Z,24.85
2016-08-23T12:33:07.334Z,24.77
2016-08-23T12:34:07.348Z,24.78
2016-08-23T12:35:06.857Z,24.73
2016-08-23T12:36:05.999Z,24.83
2016-08-23T12:37:06.671Z,24.76
2016-08-23T12:38:06.673Z,24.71
2016-08-23T12:39:06.683Z,24.77
2016-08-23T12:40:05.980Z,24.71
2016-08-23T12:41:06.746Z,24.84
2016-08-23T12:43:06.711Z,24.76
2016-08-23T12:44:07.121Z,24.71
2016-08-23T12:45:06.018Z,24.76
2016-08-23T12:46:06.988Z,24.71
2016-08-23T12:47:07.501Z,24.73
2016-08-23T12:48:06.748Z,24.64
2016-08-23T12:49:06.753Z,24.76
2016-08-23T12:50:06.815Z,24.77
2016-08-23T12:51:06.773Z,24.9
2016-08-23T12:52:07.530Z,24.87
2016-08-23T12:53:06.779Z,24.76
2016-08-23T12:54:06.080Z,24.78
2016-08-23T12:55:07.096Z,24.76
2016-08-23T12:56:06.805Z,24.73
2016-08-23T12:57:06.811Z,24.69
2016-08-23T12:58:06.109Z,24.73